Bow Clipper — LAUU4 — position and weather

sailwx.info

Track history (hours):
 
Tides and Currents Weather Stations Pressure Air Temp Water Temp Dewpoint Dewpoint Depression Visibility Wind Speed Wind Dir Waves Ship Positions

Bow Clipper

Last reported at 2015-May-13 09:33 UTC. Time now 2015-May-22 10:01 UTC.
Position N 29°22' W 094°48'.
Warning: this ship's position is 9 days out of date.

Length 188 m; draft 6.1 m.

Type: Ship (hazmat cat B). MMSI: 258946991.

Date/timePositionNaut miles runAvg speedWind from/ knotsBaromVisibWave heightAir tempDewpointWater temp
2015-May-13 09:33N 29°22' W 094°48'1312.7
2015-May-13 08:33N 29°33' W 094°55'1110.6
2015-May-13 07:33N 29°43' W 095°01'5 4.8
2015-May-13 06:33N 29°45' W 095°06'0 0.1
2015-May-13 05:33N 29°45' W 095°06'0 0.0
2015-May-13 04:33N 29°45' W 095°06'0 0.0
2015-May-13 03:33N 29°45' W 095°06'0 0.0
2015-May-13 02:33N 29°45' W 095°06'0 0.0
2015-May-13 01:30N 29°45' W 095°06'0 0.0
2015-May-13 00:33N 29°45' W 095°06'0 0.0
2015-May-12 23:33N 29°45' W 095°06'0 0.0
2015-May-12 22:30N 29°45' W 095°06'0 0.0
2015-May-12 21:27N 29°45' W 095°06'0 0.0
2015-May-12 20:27N 29°45' W 095°06'0 0.0
2015-May-12 19:33N 29°45' W 095°06'0 0.0
2015-May-12 18:30N 29°45' W 095°06'0 0.0
2015-May-12 17:33N 29°45' W 095°06'0 0.0
2015-May-12 16:33N 29°45' W 095°06'0 0.0
2015-May-12 15:33N 29°45' W 095°06'0 0.0
2015-May-12 14:33N 29°45' W 095°06'0 0.0
2015-May-12 13:33N 29°45' W 095°06'0 0.0
2015-May-12 12:30N 29°45' W 095°06'0 0.0
2015-May-12 11:32N 29°45' W 095°06'0 0.0
2015-May-12 10:31N 29°45' W 095°06'0 0.0
2015-May-12 09:33N 29°45' W 095°06'0 0.0
2015-May-12 08:31N 29°45' W 095°06'0 0.0
2015-May-12 07:32N 29°45' W 095°06'0 0.0
2015-May-12 06:32N 29°45' W 095°06'0 0.0
2015-May-12 05:32N 29°45' W 095°06'0 0.0
2015-May-12 04:32N 29°45' W 095°06'0 0.0
2015-May-12 03:32N 29°45' W 095°06'0 0.0
2015-May-12 02:32N 29°45' W 095°06'0 0.0
2015-May-12 01:32N 29°45' W 095°06'0 0.0
2015-May-12 00:32N 29°45' W 095°06'0 0.0
2015-May-11 23:32N 29°45' W 095°06'0 0.0
2015-May-11 22:26N 29°45' W 095°06'0 0.0
2015-May-11 21:32N 29°45' W 095°06'0 0.0
2015-May-11 20:32N 29°45' W 095°06'0 0.0
2015-May-11 19:29N 29°45' W 095°06'0 0.0
2015-May-11 18:29N 29°45' W 095°06'0 0.0
2015-May-11 17:32N 29°45' W 095°06'0 0.0
2015-May-11 16:26N 29°45' W 095°06'0 0.0
2015-May-11 15:29N 29°45' W 095°06'0 0.0
2015-May-11 14:32N 29°45' W 095°06'0 0.0
2015-May-11 13:32N 29°45' W 095°06'0 0.0
2015-May-11 12:29N 29°45' W 095°06'0 0.0
2015-May-11 11:32N 29°45' W 095°06'0 0.0
2015-May-11 10:32N 29°45' W 095°06'0 0.0
2015-May-11 09:32N 29°45' W 095°06'0 0.0
2015-May-11 08:32N 29°45' W 095°06'0 0.0
2015-May-11 07:32N 29°45' W 095°06'0 0.0
2015-May-11 06:29N 29°45' W 095°06'0 0.0
2015-May-11 05:32N 29°45' W 095°06'0 0.0
2015-May-11 04:32N 29°45' W 095°06'0 0.0
2015-May-11 03:32N 29°45' W 095°06'0 0.0
2015-May-11 02:29N 29°45' W 095°06'0 0.0
2015-May-11 01:32N 29°45' W 095°06'0 0.0
2015-May-11 00:32N 29°45' W 095°06'0 0.0
2015-May-10 23:32N 29°45' W 095°06'0 0.0
2015-May-10 22:32N 29°45' W 095°06'0 0.0
2015-May-10 21:32N 29°45' W 095°06'0 0.0
2015-May-10 20:29N 29°45' W 095°06'0 0.0
2015-May-10 19:32N 29°45' W 095°06'0 0.0
2015-May-10 07:31N 29°45' W 095°06'4 4.7
2015-May-10 06:33N 29°43' W 095°01'1111.1
2015-May-10 05:33N 29°33' W 094°55'1312.4
2015-May-10 04:32N 29°22' W 094°48'0 0.0
2015-May-09 15:32N 29°22' W 094°48'1010.1
2015-May-09 14:33N 29°31' W 094°53'8 7.9
2015-May-09 13:33N 29°37' W 094°60'2 1.5
2015-May-09 12:32N 29°37' W 095°01'0 0.0
2015-May-09 11:31N 29°37' W 095°01'0 0.0
2015-May-09 10:31N 29°37' W 095°01'0 0.0
2015-May-09 09:33N 29°37' W 095°01'0 0.0
2015-May-09 08:28N 29°37' W 095°01'0 0.0
2015-May-09 07:33N 29°37' W 095°01'0 0.0
2015-May-09 06:31N 29°37' W 095°01'0 0.0
2015-May-09 05:32N 29°37' W 095°01'0 0.0
2015-May-09 04:33N 29°37' W 095°01'0 0.0
2015-May-09 03:32N 29°37' W 095°01'0 0.0
2015-May-09 02:31N 29°37' W 095°01'0 0.0
2015-May-09 01:33N 29°37' W 095°01'0 0.0
2015-May-09 00:32N 29°37' W 095°01'0 0.0
2015-May-08 23:33N 29°37' W 095°01'0 0.0
2015-May-08 22:32N 29°37' W 095°01'0 0.0
2015-May-08 21:31N 29°37' W 095°01'0 0.0
2015-May-08 20:32N 29°37' W 095°01'4 4.0
2015-May-08 19:33N 29°36' W 094°57'1413.4
2015-May-08 18:33N 29°24' W 094°49'6 0.2
2015-May-07 06:31N 29°21' W 094°44'1313.6
2015-May-07 05:33N 29°31' W 094°53'9 8.9
2015-May-07 04:33N 29°37' W 095°01'0 0.3
2015-May-07 03:30N 29°37' W 095°01'0 0.0
2015-May-07 02:33N 29°37' W 095°01'0 0.0
2015-May-07 01:33N 29°37' W 095°01'0 0.0
2015-May-07 00:33N 29°37' W 095°01'0 0.0
2015-May-06 23:33N 29°37' W 095°01'0 0.0
2015-May-06 22:33N 29°37' W 095°01'0 0.0
2015-May-06 21:33N 29°37' W 095°01'0 0.0
2015-May-06 20:33N 29°37' W 095°01'0 0.0
2015-May-06 19:33N 29°37' W 095°01'0 0.0
2015-May-06 18:33N 29°37' W 095°01'0 0.0
2015-May-06 17:33N 29°37' W 095°01'0 0.0
2015-May-06 16:33N 29°37' W 095°01'0 0.0
2015-May-06 15:33N 29°37' W 095°01'0 0.0
2015-May-06 14:33N 29°37' W 095°01'0 0.0
2015-May-06 13:33N 29°37' W 095°01'0 0.0
2015-May-06 12:33N 29°37' W 095°01'0 0.0
2015-May-06 11:33N 29°37' W 095°01'0 0.0
2015-May-06 10:33N 29°37' W 095°01'0 0.0
2015-May-06 09:33N 29°37' W 095°01'0 0.0
2015-May-06 08:33N 29°37' W 095°01'0 0.0
2015-May-06 07:33N 29°37' W 095°01'0 0.0
2015-May-06 06:32N 29°37' W 095°01'0 0.0
2015-May-06 05:32N 29°37' W 095°01'0 0.0
2015-May-06 04:32N 29°37' W 095°01'0 0.0
2015-May-06 03:31N 29°37' W 095°01'0 0.0
2015-May-06 02:31N 29°37' W 095°01'0 0.0
2015-May-06 01:33N 29°37' W 095°01'2 2.1
2015-May-06 00:33N 29°37' W 094°59'1010.3
2015-May-05 23:33N 29°29' W 094°51'9 0.3
2015-May-04 11:32N 29°21' W 094°46'1110.9
2015-May-04 10:33N 29°30' W 094°52'1211.9
2015-May-04 09:33N 29°40' W 094°59'8 7.7
2015-May-04 08:33N 29°45' W 095°06'2 2.2
2015-May-04 07:32N 29°44' W 095°08'0 0.0
2015-May-04 06:32N 29°44' W 095°08'0 0.0
2015-May-04 05:31N 29°44' W 095°08'0 0.0
2015-May-04 04:31N 29°44' W 095°08'0 0.0
2015-May-04 03:31N 29°44' W 095°08'0 0.0
2015-May-04 02:31N 29°44' W 095°08'0 0.0
2015-May-04 01:33N 29°44' W 095°08'0 0.0
2015-May-04 00:31N 29°44' W 095°08'0 0.0
2015-May-03 23:31N 29°44' W 095°08'0 0.0
2015-May-03 22:31N 29°44' W 095°08'0 0.0
2015-May-03 21:31N 29°44' W 095°08'0 0.0
2015-May-03 20:33N 29°44' W 095°08'0 0.0
2015-May-03 19:29N 29°44' W 095°08'0 0.0
2015-May-03 18:32N 29°44' W 095°08'0 0.0
2015-May-03 17:32N 29°44' W 095°08'0 0.0
2015-May-03 16:31N 29°44' W 095°08'0 0.0
2015-May-03 15:31N 29°44' W 095°08'0 0.0
2015-May-03 14:31N 29°44' W 095°08'0 0.0
2015-May-03 13:29N 29°44' W 095°08'1 0.8
2015-May-03 12:33N 29°44' W 095°07'6 6.1
2015-May-03 11:33N 29°42' W 095°00'5 5.4
2015-May-03 10:34N 29°37' W 094°59'0 0.1
2015-May-03 09:33N 29°37' W 094°59'  
Track history (hours):
 
Tides and Currents Weather Stations Pressure Air Temp Water Temp Dewpoint Dewpoint Depression Visibility Wind Speed Wind Dir Waves Ship Positions

Bow Clipper

Last reported at 2015-May-13 09:33 UTC. Time now 2015-May-22 10:01 UTC.
Position N 29°22' W 094°48'.
Warning: this ship's position is 9 days out of date.

Length 188 m; draft 6.1 m.

Type: Ship (hazmat cat B). MMSI: 258946991.

Date/timePositionNaut miles runAvg speedWind from/ knotsBaromVisibWave heightAir tempDewpointWater temp
2015-May-13 09:33N 29°22' W 094°48'1312.7
2015-May-13 08:33N 29°33' W 094°55'1110.6
2015-May-13 07:33N 29°43' W 095°01'5 4.8
2015-May-13 06:33N 29°45' W 095°06'0 0.1
2015-May-13 05:33N 29°45' W 095°06'0 0.0
2015-May-13 04:33N 29°45' W 095°06'0 0.0
2015-May-13 03:33N 29°45' W 095°06'0 0.0
2015-May-13 02:33N 29°45' W 095°06'0 0.0
2015-May-13 01:30N 29°45' W 095°06'0 0.0
2015-May-13 00:33N 29°45' W 095°06'0 0.0
2015-May-12 23:33N 29°45' W 095°06'0 0.0
2015-May-12 22:30N 29°45' W 095°06'0 0.0
2015-May-12 21:27N 29°45' W 095°06'0 0.0
2015-May-12 20:27N 29°45' W 095°06'0 0.0
2015-May-12 19:33N 29°45' W 095°06'0 0.0
2015-May-12 18:30N 29°45' W 095°06'0 0.0
2015-May-12 17:33N 29°45' W 095°06'0 0.0
2015-May-12 16:33N 29°45' W 095°06'0 0.0
2015-May-12 15:33N 29°45' W 095°06'0 0.0
2015-May-12 14:33N 29°45' W 095°06'0 0.0
2015-May-12 13:33N 29°45' W 095°06'0 0.0
2015-May-12 12:30N 29°45' W 095°06'0 0.0
2015-May-12 11:32N 29°45' W 095°06'0 0.0
2015-May-12 10:31N 29°45' W 095°06'0 0.0
2015-May-12 09:33N 29°45' W 095°06'0 0.0
2015-May-12 08:31N 29°45' W 095°06'0 0.0
2015-May-12 07:32N 29°45' W 095°06'0 0.0
2015-May-12 06:32N 29°45' W 095°06'0 0.0
2015-May-12 05:32N 29°45' W 095°06'0 0.0
2015-May-12 04:32N 29°45' W 095°06'0 0.0
2015-May-12 03:32N 29°45' W 095°06'0 0.0
2015-May-12 02:32N 29°45' W 095°06'0 0.0
2015-May-12 01:32N 29°45' W 095°06'0 0.0
2015-May-12 00:32N 29°45' W 095°06'0 0.0
2015-May-11 23:32N 29°45' W 095°06'0 0.0
2015-May-11 22:26N 29°45' W 095°06'0 0.0
2015-May-11 21:32N 29°45' W 095°06'0 0.0
2015-May-11 20:32N 29°45' W 095°06'0 0.0
2015-May-11 19:29N 29°45' W 095°06'0 0.0
2015-May-11 18:29N 29°45' W 095°06'0 0.0
2015-May-11 17:32N 29°45' W 095°06'0 0.0
2015-May-11 16:26N 29°45' W 095°06'0 0.0
2015-May-11 15:29N 29°45' W 095°06'0 0.0
2015-May-11 14:32N 29°45' W 095°06'0 0.0
2015-May-11 13:32N 29°45' W 095°06'0 0.0
2015-May-11 12:29N 29°45' W 095°06'0 0.0
2015-May-11 11:32N 29°45' W 095°06'0 0.0
2015-May-11 10:32N 29°45' W 095°06'0 0.0
2015-May-11 09:32N 29°45' W 095°06'0 0.0
2015-May-11 08:32N 29°45' W 095°06'0 0.0
2015-May-11 07:32N 29°45' W 095°06'0 0.0
2015-May-11 06:29N 29°45' W 095°06'0 0.0
2015-May-11 05:32N 29°45' W 095°06'0 0.0
2015-May-11 04:32N 29°45' W 095°06'0 0.0
2015-May-11 03:32N 29°45' W 095°06'0 0.0
2015-May-11 02:29N 29°45' W 095°06'0 0.0
2015-May-11 01:32N 29°45' W 095°06'0 0.0
2015-May-11 00:32N 29°45' W 095°06'0 0.0
2015-May-10 23:32N 29°45' W 095°06'0 0.0
2015-May-10 22:32N 29°45' W 095°06'0 0.0
2015-May-10 21:32N 29°45' W 095°06'0 0.0
2015-May-10 20:29N 29°45' W 095°06'0 0.0
2015-May-10 19:32N 29°45' W 095°06'0 0.0
2015-May-10 07:31N 29°45' W 095°06'4 4.7
2015-May-10 06:33N 29°43' W 095°01'1111.1
2015-May-10 05:33N 29°33' W 094°55'1312.4
2015-May-10 04:32N 29°22' W 094°48'0 0.0
2015-May-09 15:32N 29°22' W 094°48'1010.1
2015-May-09 14:33N 29°31' W 094°53'8 7.9
2015-May-09 13:33N 29°37' W 094°60'2 1.5
2015-May-09 12:32N 29°37' W 095°01'0 0.0
2015-May-09 11:31N 29°37' W 095°01'0 0.0
2015-May-09 10:31N 29°37' W 095°01'0 0.0
2015-May-09 09:33N 29°37' W 095°01'0 0.0
2015-May-09 08:28N 29°37' W 095°01'0 0.0
2015-May-09 07:33N 29°37' W 095°01'0 0.0
2015-May-09 06:31N 29°37' W 095°01'0 0.0
2015-May-09 05:32N 29°37' W 095°01'0 0.0
2015-May-09 04:33N 29°37' W 095°01'0 0.0
2015-May-09 03:32N 29°37' W 095°01'0 0.0
2015-May-09 02:31N 29°37' W 095°01'0 0.0
2015-May-09 01:33N 29°37' W 095°01'0 0.0
2015-May-09 00:32N 29°37' W 095°01'0 0.0
2015-May-08 23:33N 29°37' W 095°01'0 0.0
2015-May-08 22:32N 29°37' W 095°01'0 0.0
2015-May-08 21:31N 29°37' W 095°01'0 0.0
2015-May-08 20:32N 29°37' W 095°01'4 4.0
2015-May-08 19:33N 29°36' W 094°57'1413.4
2015-May-08 18:33N 29°24' W 094°49'6 0.2
2015-May-07 06:31N 29°21' W 094°44'1313.6
2015-May-07 05:33N 29°31' W 094°53'9 8.9
2015-May-07 04:33N 29°37' W 095°01'0 0.3
2015-May-07 03:30N 29°37' W 095°01'0 0.0
2015-May-07 02:33N 29°37' W 095°01'0 0.0
2015-May-07 01:33N 29°37' W 095°01'0 0.0
2015-May-07 00:33N 29°37' W 095°01'0 0.0
2015-May-06 23:33N 29°37' W 095°01'0 0.0
2015-May-06 22:33N 29°37' W 095°01'0 0.0
2015-May-06 21:33N 29°37' W 095°01'0 0.0
2015-May-06 20:33N 29°37' W 095°01'0 0.0
2015-May-06 19:33N 29°37' W 095°01'0 0.0
2015-May-06 18:33N 29°37' W 095°01'0 0.0
2015-May-06 17:33N 29°37' W 095°01'0 0.0
2015-May-06 16:33N 29°37' W 095°01'0 0.0
2015-May-06 15:33N 29°37' W 095°01'0 0.0
2015-May-06 14:33N 29°37' W 095°01'0 0.0
2015-May-06 13:33N 29°37' W 095°01'0 0.0
2015-May-06 12:33N 29°37' W 095°01'0 0.0
2015-May-06 11:33N 29°37' W 095°01'0 0.0
2015-May-06 10:33N 29°37' W 095°01'0 0.0
2015-May-06 09:33N 29°37' W 095°01'0 0.0
2015-May-06 08:33N 29°37' W 095°01'0 0.0
2015-May-06 07:33N 29°37' W 095°01'0 0.0
2015-May-06 06:32N 29°37' W 095°01'0 0.0
2015-May-06 05:32N 29°37' W 095°01'0 0.0
2015-May-06 04:32N 29°37' W 095°01'0 0.0
2015-May-06 03:31N 29°37' W 095°01'0 0.0
2015-May-06 02:31N 29°37' W 095°01'0 0.0
2015-May-06 01:33N 29°37' W 095°01'2 2.1
2015-May-06 00:33N 29°37' W 094°59'1010.3
2015-May-05 23:33N 29°29' W 094°51'9 0.3
2015-May-04 11:32N 29°21' W 094°46'1110.9
2015-May-04 10:33N 29°30' W 094°52'1211.9
2015-May-04 09:33N 29°40' W 094°59'8 7.7
2015-May-04 08:33N 29°45' W 095°06'2 2.2
2015-May-04 07:32N 29°44' W 095°08'0 0.0
2015-May-04 06:32N 29°44' W 095°08'0 0.0
2015-May-04 05:31N 29°44' W 095°08'0 0.0
2015-May-04 04:31N 29°44' W 095°08'0 0.0
2015-May-04 03:31N 29°44' W 095°08'0 0.0
2015-May-04 02:31N 29°44' W 095°08'0 0.0
2015-May-04 01:33N 29°44' W 095°08'0 0.0
2015-May-04 00:31N 29°44' W 095°08'0 0.0
2015-May-03 23:31N 29°44' W 095°08'0 0.0
2015-May-03 22:31N 29°44' W 095°08'0 0.0
2015-May-03 21:31N 29°44' W 095°08'0 0.0
2015-May-03 20:33N 29°44' W 095°08'0 0.0
2015-May-03 19:29N 29°44' W 095°08'0 0.0
2015-May-03 18:32N 29°44' W 095°08'0 0.0
2015-May-03 17:32N 29°44' W 095°08'0 0.0
2015-May-03 16:31N 29°44' W 095°08'0 0.0
2015-May-03 15:31N 29°44' W 095°08'0 0.0
2015-May-03 14:31N 29°44' W 095°08'0 0.0
2015-May-03 13:29N 29°44' W 095°08'1 0.8
2015-May-03 12:33N 29°44' W 095°07'6 6.1
2015-May-03 11:33N 29°42' W 095°00'5 5.4
2015-May-03 10:34N 29°37' W 094°59'0 0.1
2015-May-03 09:33N 29°37' W 094°59'  

Dump ship's entire track history